sensor_id;sensor_type;location;lat;lon;timestamp;pressure;altitude;pressure_sealevel;temperature;humidity
14273;BME280;7220;49.450;11.052;2024-02-15T00:02:30;98636.38;;;10.66;100.00
14273;BME280;7220;49.450;11.052;2024-02-15T00:06:30;98626.59;;;10.67;100.00
14273;BME280;7220;49.450;11.052;2024-02-15T00:10:31;98623.19;;;10.65;100.00
14273;BME280;7220;49.450;11.052;2024-02-15T00:14:32;98624.03;;;10.65;100.00
14273;BME280;7220;49.450;11.052;2024-02-15T00:18:32;98623.03;;;10.68;100.00
14273;BME280;7220;49.450;11.052;2024-02-15T00:22:32;98615.00;;;10.69;100.00
14273;BME280;7220;49.450;11.052;2024-02-15T00:26:33;98606.22;;;10.67;100.00
14273;BME280;7220;49.450;11.052;2024-02-15T00:30:33;98609.59;;;10.71;100.00
14273;BME280;7220;49.450;11.052;2024-02-15T00:34:34;98605.34;;;10.67;100.00
14273;BME280;7220;49.450;11.052;2024-02-15T00:38:34;98610.53;;;10.70;100.00
14273;BME280;7220;49.450;11.052;2024-02-15T00:42:35;98601.91;;;10.65;100.00
14273;BME280;7220;49.450;11.052;2024-02-15T00:46:36;98600.97;;;10.66;100.00
14273;BME280;7220;49.450;11.052;2024-02-15T00:50:36;98611.53;;;10.67;100.00
14273;BME280;7220;49.450;11.052;2024-02-15T00:54:37;98608.00;;;10.67;100.00
14273;BME280;7220;49.450;11.052;2024-02-15T00:58:37;98597.38;;;10.67;100.00
14273;BME280;7220;49.450;11.052;2024-02-15T01:02:38;98610.31;;;10.75;100.00
14273;BME280;7220;49.450;11.052;2024-02-15T01:06:38;98607.72;;;10.73;100.00
14273;BME280;7220;49.450;11.052;2024-02-15T01:10:38;98602.41;;;10.73;100.00
14273;BME280;7220;49.450;11.052;2024-02-15T01:14:39;98606.78;;;10.74;100.00
14273;BME280;7220;49.450;11.052;2024-02-15T01:18:39;98604.09;;;10.74;100.00
14273;BME280;7220;49.450;11.052;2024-02-15T01:22:39;98602.34;;;10.75;100.00
14273;BME280;7220;49.450;11.052;2024-02-15T01:26:40;98604.91;;;10.76;100.00
14273;BME280;7220;49.450;11.052;2024-02-15T01:30:40;98607.47;;;10.78;100.00
14273;BME280;7220;49.450;11.052;2024-02-15T01:34:43;98605.69;;;10.78;100.00
14273;BME280;7220;49.450;11.052;2024-02-15T01:38:44;98595.00;;;10.80;100.00
14273;BME280;7220;49.450;11.052;2024-02-15T01:42:45;98592.41;;;10.78;100.00
14273;BME280;7220;49.450;11.052;2024-02-15T01:46:47;98597.72;;;10.78;100.00
14273;BME280;7220;49.450;11.052;2024-02-15T01:50:48;98602.16;;;10.78;100.00
14273;BME280;7220;49.450;11.052;2024-02-15T01:54:52;98596.84;;;10.78;100.00
14273;BME280;7220;49.450;11.052;2024-02-15T01:58:53;98590.81;;;10.74;100.00
14273;BME280;7220;49.450;11.052;2024-02-15T02:02:56;98592.41;;;10.78;100.00
14273;BME280;7220;49.450;11.052;2024-02-15T02:07:00;98586.47;;;10.73;100.00
14273;BME280;7220;49.450;11.052;2024-02-15T02:11:00;98592.53;;;10.75;100.00
14273;BME280;7220;49.450;11.052;2024-02-15T02:15:02;98587.22;;;10.75;100.00
14273;BME280;7220;49.450;11.052;2024-02-15T02:19:02;98585.50;;;10.74;100.00
14273;BME280;7220;49.450;11.052;2024-02-15T02:23:13;98585.50;;;10.74;100.00
14273;BME280;7220;49.450;11.052;2024-02-15T02:27:15;98581.91;;;10.75;100.00
14273;BME280;7220;49.450;11.052;2024-02-15T02:31:15;98589.13;;;10.73;100.00
14273;BME280;7220;49.450;11.052;2024-02-15T02:35:16;98591.00;;;10.71;100.00
14273;BME280;7220;49.450;11.052;2024-02-15T02:39:16;98596.13;;;10.74;100.00
14273;BME280;7220;49.450;11.052;2024-02-15T02:43:17;98583.09;;;10.69;100.00
14273;BME280;7220;49.450;11.052;2024-02-15T02:47:17;98585.81;;;10.68;100.00
14273;BME280;7220;49.450;11.052;2024-02-15T02:51:18;98589.25;;;10.70;100.00
14273;BME280;7220;49.450;11.052;2024-02-15T02:55:18;98584.06;;;10.67;100.00
14273;BME280;7220;49.450;11.052;2024-02-15T02:59:19;98589.41;;;10.67;100.00
14273;BME280;7220;49.450;11.052;2024-02-15T03:03:19;98590.41;;;10.64;100.00
14273;BME280;7220;49.450;11.052;2024-02-15T03:07:20;98601.91;;;10.65;100.00
14273;BME280;7220;49.450;11.052;2024-02-15T03:11:20;98596.59;;;10.65;100.00
14273;BME280;7220;49.450;11.052;2024-02-15T03:15:21;98592.06;;;10.67;100.00
14273;BME280;7220;49.450;11.052;2024-02-15T03:19:22;98604.34;;;10.69;100.00
14273;BME280;7220;49.450;11.052;2024-02-15T03:23:23;98588.47;;;10.68;100.00
14273;BME280;7220;49.450;11.052;2024-02-15T03:27:23;98589.25;;;10.70;100.00
14273;BME280;7220;49.450;11.052;2024-02-15T03:31:23;98588.53;;;10.66;100.00
14273;BME280;7220;49.450;11.052;2024-02-15T03:35:25;98578.75;;;10.67;100.00
14273;BME280;7220;49.450;11.052;2024-02-15T03:39:26;98582.34;;;10.66;100.00
14273;BME280;7220;49.450;11.052;2024-02-15T06:51:30;98615.31;;;11.17;100.00
14273;BME280;7220;49.450;11.052;2024-02-15T06:55:30;98604.41;;;11.59;100.00
14273;BME280;7220;49.450;11.052;2024-02-15T06:59:32;98612.75;;;11.68;100.00
14273;BME280;7220;49.450;11.052;2024-02-15T07:03:32;98618.31;;;11.64;100.00
14273;BME280;7220;49.450;11.052;2024-02-15T07:07:33;98609.03;;;11.55;100.00
14273;BME280;7220;49.450;11.052;2024-02-15T07:11:34;98609.72;;;11.41;100.00
14273;BME280;7220;49.450;11.052;2024-02-15T07:15:35;98599.63;;;11.30;100.00
14273;BME280;7220;49.450;11.052;2024-02-15T07:19:42;98602.66;;;11.23;100.00
14273;BME280;7220;49.450;11.052;2024-02-15T07:23:43;98602.97;;;11.16;100.00
14273;BME280;7220;49.450;11.052;2024-02-15T07:27:43;98617.81;;;11.03;100.00
14273;BME280;7220;49.450;11.052;2024-02-15T07:31:43;98609.91;;;11.01;100.00
14273;BME280;7220;49.450;11.052;2024-02-15T07:35:44;98619.06;;;10.96;100.00
14273;BME280;7220;49.450;11.052;2024-02-15T07:39:44;98615.69;;;10.92;100.00
14273;BME280;7220;49.450;11.052;2024-02-15T07:43:45;98604.56;;;10.84;100.00
14273;BME280;7220;49.450;11.052;2024-02-15T07:47:47;98610.81;;;10.83;100.00
14273;BME280;7220;49.450;11.052;2024-02-15T07:51:48;98619.78;;;10.80;100.00
14273;BME280;7220;49.450;11.052;2024-02-15T07:55:52;98619.84;;;10.79;100.00
14273;BME280;7220;49.450;11.052;2024-02-15T07:59:53;98616.47;;;10.75;100.00
14273;BME280;7220;49.450;11.052;2024-02-15T08:03:53;98610.66;;;10.67;100.00
14273;BME280;7220;49.450;11.052;2024-02-15T08:07:54;98618.84;;;10.62;100.00
14273;BME280;7220;49.450;11.052;2024-02-15T08:11:57;98618.84;;;10.62;100.00
14273;BME280;7220;49.450;11.052;2024-02-15T08:15:59;98609.22;;;10.60;100.00
14273;BME280;7220;49.450;11.052;2024-02-15T08:19:59;98604.63;;;10.63;100.00
14273;BME280;7220;49.450;11.052;2024-02-15T08:24:00;98601.03;;;10.64;100.00
14273;BME280;7220;49.450;11.052;2024-02-15T08:28:05;98600.97;;;10.66;100.00
14273;BME280;7220;49.450;11.052;2024-02-15T08:32:07;98600.97;;;10.66;100.00
14273;BME280;7220;49.450;11.052;2024-02-15T08:36:08;98583.16;;;10.68;100.00
14273;BME280;7220;49.450;11.052;2024-02-15T08:40:10;98586.59;;;10.70;100.00
14273;BME280;7220;49.450;11.052;2024-02-15T08:44:11;98580.28;;;10.72;100.00
14273;BME280;7220;49.450;11.052;2024-02-15T08:48:15;98583.81;;;10.73;100.00
14273;BME280;7220;49.450;11.052;2024-02-15T08:52:16;98581.78;;;10.78;100.00
14273;BME280;7220;49.450;11.052;2024-02-15T08:56:18;98585.84;;;10.85;100.00
14273;BME280;7220;49.450;11.052;2024-02-15T09:00:19;98574.88;;;10.93;100.00
14273;BME280;7220;49.450;11.052;2024-02-15T09:04:20;98576.81;;;10.89;100.00
14273;BME280;7220;49.450;11.052;2024-02-15T09:08:21;98582.59;;;10.98;100.00
14273;BME280;7220;49.450;11.052;2024-02-15T09:12:22;98576.69;;;11.10;100.00
14273;BME280;7220;49.450;11.052;2024-02-15T09:16:22;98575.13;;;11.24;100.00
14273;BME280;7220;49.450;11.052;2024-02-15T09:20:23;98577.88;;;11.40;100.00
14273;BME280;7220;49.450;11.052;2024-02-15T09:24:28;98566.44;;;11.55;100.00
14273;BME280;7220;49.450;11.052;2024-02-15T09:28:29;98567.13;;;11.76;100.00
14273;BME280;7220;49.450;11.052;2024-02-15T09:32:29;98559.94;;;11.94;100.00
14273;BME280;7220;49.450;11.052;2024-02-15T09:36:34;98550.13;;;12.12;100.00
14273;BME280;7220;49.450;11.052;2024-02-15T09:40:35;98561.50;;;12.32;100.00
14273;BME280;7220;49.450;11.052;2024-02-15T09:44:35;98557.81;;;12.51;100.00
14273;BME280;7220;49.450;11.052;2024-02-15T09:48:36;98564.00;;;12.67;100.00
14273;BME280;7220;49.450;11.052;2024-02-15T09:52:45;98572.69;;;12.87;100.00
14273;BME280;7220;49.450;11.052;2024-02-15T09:56:45;98569.28;;;12.99;100.00
14273;BME280;7220;49.450;11.052;2024-02-15T10:00:46;98565.06;;;13.11;100.00
14273;BME280;7220;49.450;11.052;2024-02-15T10:04:47;98577.59;;;13.25;100.00
14273;BME280;7220;49.450;11.052;2024-02-15T10:08:47;98554.59;;;13.38;100.00
14273;BME280;7220;49.450;11.052;2024-02-15T10:12:48;98560.84;;;13.53;98.81
14273;BME280;7220;49.450;11.052;2024-02-15T10:16:49;98556.38;;;13.68;97.76
14273;BME280;7220;49.450;11.052;2024-02-15T10:20:59;98549.16;;;13.85;96.34
14273;BME280;7220;49.450;11.052;2024-02-15T10:25:28;98553.28;;;14.05;95.31
14273;BME280;7220;49.450;11.052;2024-02-15T10:29:30;98540.00;;;14.18;93.81
14273;BME280;7220;49.450;11.052;2024-02-15T10:33:30;98539.97;;;14.32;93.20
14273;BME280;7220;49.450;11.052;2024-02-15T10:37:31;98544.03;;;14.52;91.14
14273;BME280;7220;49.450;11.052;2024-02-15T10:41:32;98542.00;;;14.71;89.86
14273;BME280;7220;49.450;11.052;2024-02-15T10:45:34;98528.69;;;14.83;88.86
14273;BME280;7220;49.450;11.052;2024-02-15T10:49:34;98525.00;;;14.99;87.48
14273;BME280;7220;49.450;11.052;2024-02-15T10:53:41;98517.22;;;15.09;86.07
14273;BME280;7220;49.450;11.052;2024-02-15T10:57:46;98497.41;;;15.11;85.19
14273;BME280;7220;49.450;11.052;2024-02-15T11:01:54;98493.25;;;15.20;84.30
14273;BME280;7220;49.450;11.052;2024-02-15T11:06:00;98487.78;;;15.22;83.33
14273;BME280;7220;49.450;11.052;2024-02-15T11:10:03;98492.28;;;15.21;83.00
14273;BME280;7220;49.450;11.052;2024-02-15T11:14:27;98492.28;;;15.21;82.19
14273;BME280;7220;49.450;11.052;2024-02-15T11:18:45;98482.31;;;15.23;80.81
14273;BME280;7220;49.450;11.052;2024-02-15T11:22:56;98472.91;;;15.30;80.18
14273;BME280;7220;49.450;11.052;2024-02-15T11:27:00;98458.69;;;15.43;80.15
14273;BME280;7220;49.450;11.052;2024-02-15T11:31:08;98467.34;;;15.59;79.40
14273;BME280;7220;49.450;11.052;2024-02-15T11:35:10;98463.16;;;15.81;78.50
14273;BME280;7220;49.450;11.052;2024-02-15T11:39:42;98448.72;;;15.84;77.50
14273;BME280;7220;49.450;11.052;2024-02-15T11:47:50;98456.22;;;15.91;77.05
14273;BME280;7220;49.450;11.052;2024-02-15T11:51:50;98446.19;;;16.06;75.82
14273;BME280;7220;49.450;11.052;2024-02-15T11:55:59;98444.13;;;16.71;75.77
14273;BME280;7220;49.450;11.052;2024-02-15T12:00:00;98433.72;;;18.29;72.62
14273;BME280;7220;49.450;11.052;2024-02-15T12:04:32;98430.75;;;19.51;65.00
14273;BME280;7220;49.450;11.052;2024-02-15T12:09:11;98424.50;;;20.02;60.15
14273;BME280;7220;49.450;11.052;2024-02-15T12:13:30;98419.56;;;21.93;55.88
14273;BME280;7220;49.450;11.052;2024-02-15T12:17:49;98416.19;;;24.06;50.55
14273;BME280;7220;49.450;11.052;2024-02-15T12:22:07;98406.69;;;25.60;43.97
14273;BME280;7220;49.450;11.052;2024-02-15T12:26:09;98410.25;;;27.03;39.11
14273;BME280;7220;49.450;11.052;2024-02-15T12:30:15;98387.69;;;27.48;38.66
14273;BME280;7220;49.450;11.052;2024-02-15T12:34:20;98390.84;;;27.36;38.70
14273;BME280;7220;49.450;11.052;2024-02-15T12:38:20;98387.16;;;26.68;38.36
14273;BME280;7220;49.450;11.052;2024-02-15T12:42:21;98374.31;;;26.22;36.65
14273;BME280;7220;49.450;11.052;2024-02-15T12:46:22;98375.84;;;26.24;37.60
14273;BME280;7220;49.450;11.052;2024-02-15T12:50:29;98366.72;;;27.10;35.91
14273;BME280;7220;49.450;11.052;2024-02-15T12:54:30;98366.66;;;26.49;36.11
14273;BME280;7220;49.450;11.052;2024-02-15T12:58:31;98368.63;;;25.52;37.47
14273;BME280;7220;49.450;11.052;2024-02-15T13:02:31;98363.91;;;25.04;38.15
14273;BME280;7220;49.450;11.052;2024-02-15T13:06:32;98359.13;;;24.65;38.96
14273;BME280;7220;49.450;11.052;2024-02-15T13:10:35;98355.00;;;24.36;40.03
14273;BME280;7220;49.450;11.052;2024-02-15T13:14:35;98349.16;;;24.06;40.31
14273;BME280;7220;49.450;11.052;2024-02-15T13:18:36;98335.38;;;23.57;40.55
14273;BME280;7220;49.450;11.052;2024-02-15T13:22:37;98335.59;;;23.29;41.83
14273;BME280;7220;49.450;11.052;2024-02-15T13:26:39;98335.28;;;23.14;42.09
14273;BME280;7220;49.450;11.052;2024-02-15T13:30:40;98332.53;;;22.43;42.99
14273;BME280;7220;49.450;11.052;2024-02-15T13:34:43;98337.66;;;21.72;44.87
14273;BME280;7220;49.450;11.052;2024-02-15T13:38:45;98335.59;;;21.19;46.42
14273;BME280;7220;49.450;11.052;2024-02-15T13:42:47;98320.59;;;20.57;48.15
14273;BME280;7220;49.450;11.052;2024-02-15T13:46:53;98312.34;;;20.29;48.60
14273;BME280;7220;49.450;11.052;2024-02-15T13:50:55;98313.75;;;20.14;48.88
14273;BME280;7220;49.450;11.052;2024-02-15T13:54:56;98307.78;;;20.00;49.32
14273;BME280;7220;49.450;11.052;2024-02-15T13:58:56;98296.41;;;19.97;50.22
14273;BME280;7220;49.450;11.052;2024-02-15T14:02:58;98287.75;;;19.93;50.39
14273;BME280;7220;49.450;11.052;2024-02-15T14:06:59;98294.31;;;19.60;51.11
14273;BME280;7220;49.450;11.052;2024-02-15T14:11:00;98283.72;;;19.27;51.00
14273;BME280;7220;49.450;11.052;2024-02-15T14:15:01;98289.34;;;19.24;50.76
14273;BME280;7220;49.450;11.052;2024-02-15T14:19:01;98293.97;;;18.91;52.00
14273;BME280;7220;49.450;11.052;2024-02-15T14:23:03;98282.16;;;18.94;51.68
14273;BME280;7220;49.450;11.052;2024-02-15T14:27:05;98285.00;;;18.81;52.55
14273;BME280;7220;49.450;11.052;2024-02-15T14:31:06;98292.16;;;18.70;52.82
14273;BME280;7220;49.450;11.052;2024-02-15T14:35:25;98287.03;;;18.25;53.32
14273;BME280;7220;49.450;11.052;2024-02-15T14:39:25;98289.59;;;18.26;52.88
14273;BME280;7220;49.450;11.052;2024-02-15T14:43:26;98286.09;;;18.15;53.46
14273;BME280;7220;49.450;11.052;2024-02-15T14:47:26;98305.81;;;17.92;53.26
14273;BME280;7220;49.450;11.052;2024-02-15T14:51:27;98281.16;;;17.76;52.81
14273;BME280;7220;49.450;11.052;2024-02-15T14:55:27;98289.72;;;17.81;52.36
14273;BME280;7220;49.450;11.052;2024-02-15T14:59:29;98271.88;;;17.80;52.46
14273;BME280;7220;49.450;11.052;2024-02-15T15:03:32;98273.97;;;17.76;53.10
14273;BME280;7220;49.450;11.052;2024-02-15T15:07:33;98275.69;;;17.77;53.51
14273;BME280;7220;49.450;11.052;2024-02-15T15:11:52;98270.78;;;17.71;54.09
14273;BME280;7220;49.450;11.052;2024-02-15T15:16:11;98265.31;;;17.61;53.42
14273;BME280;7220;49.450;11.052;2024-02-15T15:20:14;98278.91;;;17.48;53.48
14273;BME280;7220;49.450;11.052;2024-02-15T15:24:17;98266.69;;;17.33;54.08
14273;BME280;7220;49.450;11.052;2024-02-15T15:28:18;98270.63;;;17.17;53.77
14273;BME280;7220;49.450;11.052;2024-02-15T15:32:19;98265.88;;;17.10;54.51
14273;BME280;7220;49.450;11.052;2024-02-15T15:36:20;98272.06;;;16.99;55.78
14273;BME280;7220;49.450;11.052;2024-02-15T15:40:21;98267.16;;;16.81;56.42
14273;BME280;7220;49.450;11.052;2024-02-15T15:44:22;98254.97;;;16.66;57.07
14273;BME280;7220;49.450;11.052;2024-02-15T15:48:23;98248.81;;;16.41;56.80
14273;BME280;7220;49.450;11.052;2024-02-15T15:52:24;98259.63;;;16.28;58.42
14273;BME280;7220;49.450;11.052;2024-02-15T15:56:24;98245.41;;;16.15;59.33
14273;BME280;7220;49.450;11.052;2024-02-15T16:00:25;98251.31;;;15.96;60.06
14273;BME280;7220;49.450;11.052;2024-02-15T16:04:25;98258.25;;;15.74;61.04
14273;BME280;7220;49.450;11.052;2024-02-15T16:08:26;98254.66;;;15.62;61.16
14273;BME280;7220;49.450;11.052;2024-02-15T16:12:26;98258.88;;;15.53;62.05
14273;BME280;7220;49.450;11.052;2024-02-15T16:16:30;98248.25;;;15.52;61.88
14273;BME280;7220;49.450;11.052;2024-02-15T16:20:30;98252.81;;;15.38;62.80
14273;BME280;7220;49.450;11.052;2024-02-15T16:24:31;98248.34;;;15.26;63.96
14273;BME280;7220;49.450;11.052;2024-02-15T16:28:34;98247.84;;;15.08;64.58
14273;BME280;7220;49.450;11.052;2024-02-15T16:32:35;98250.13;;;15.01;65.02
14273;BME280;7220;49.450;11.052;2024-02-15T16:36:35;98243.56;;;14.92;64.85
14273;BME280;7220;49.450;11.052;2024-02-15T16:40:36;98252.56;;;14.78;66.25
14273;BME280;7220;49.450;11.052;2024-02-15T16:44:36;98247.78;;;14.71;66.29
14273;BME280;7220;49.450;11.052;2024-02-15T16:48:37;98256.97;;;14.66;67.16
14273;BME280;7220;49.450;11.052;2024-02-15T16:52:38;98250.53;;;14.56;66.89
14273;BME280;7220;49.450;11.052;2024-02-15T16:56:38;98251.69;;;14.52;67.75
14273;BME280;7220;49.450;11.052;2024-02-15T17:00:39;98254.78;;;14.46;68.46
14273;BME280;7220;49.450;11.052;2024-02-15T17:04:39;98255.41;;;14.36;69.42
14273;BME280;7220;49.450;11.052;2024-02-15T17:08:40;98250.69;;;14.27;70.36
14273;BME280;7220;49.450;11.052;2024-02-15T17:12:41;98246.00;;;14.18;70.47
14273;BME280;7220;49.450;11.052;2024-02-15T17:16:41;98249.81;;;14.14;72.02
14273;BME280;7220;49.450;11.052;2024-02-15T17:20:45;98236.25;;;14.04;73.07
14273;BME280;7220;49.450;11.052;2024-02-15T17:24:45;98236.50;;;13.86;73.90
14273;BME280;7220;49.450;11.052;2024-02-15T17:28:46;98233.94;;;13.85;74.25
14273;BME280;7220;49.450;11.052;2024-02-15T17:32:46;98233.06;;;13.84;74.76
14273;BME280;7220;49.450;11.052;2024-02-15T17:36:46;98244.28;;;13.77;74.87
14273;BME280;7220;49.450;11.052;2024-02-15T17:40:47;98234.19;;;13.67;75.95
14273;BME280;7220;49.450;11.052;2024-02-15T17:44:49;98234.69;;;13.60;76.49
14273;BME280;7220;49.450;11.052;2024-02-15T17:48:49;98242.63;;;13.61;76.33
14273;BME280;7220;49.450;11.052;2024-02-15T17:52:50;98239.78;;;13.50;77.07
14273;BME280;7220;49.450;11.052;2024-02-15T17:56:50;98233.78;;;13.46;78.12
14273;BME280;7220;49.450;11.052;2024-02-15T18:00:53;98228.53;;;13.30;78.11
14273;BME280;7220;49.450;11.052;2024-02-15T18:04:53;98235.59;;;13.31;79.31
14273;BME280;7220;49.450;11.052;2024-02-15T18:08:53;98233.03;;;13.30;78.92
14273;BME280;7220;49.450;11.052;2024-02-15T18:12:54;98230.47;;;13.28;79.73
14273;BME280;7220;49.450;11.052;2024-02-15T18:16:54;98222.28;;;13.17;80.02
14273;BME280;7220;49.450;11.052;2024-02-15T18:20:57;98240.00;;;13.18;80.71
14273;BME280;7220;49.450;11.052;2024-02-15T18:24:59;98246.41;;;13.15;80.71
14273;BME280;7220;49.450;11.052;2024-02-15T18:28:59;98223.53;;;13.11;80.84
14273;BME280;7220;49.450;11.052;2024-02-15T18:33:00;98216.44;;;12.97;80.96
14273;BME280;7220;49.450;11.052;2024-02-15T18:37:03;98220.19;;;13.07;80.95
14273;BME280;7220;49.450;11.052;2024-02-15T18:41:04;98217.09;;;13.01;81.82
14273;BME280;7220;49.450;11.052;2024-02-15T18:45:06;98212.78;;;12.98;82.38
14273;BME280;7220;49.450;11.052;2024-02-15T18:49:06;98212.22;;;12.93;83.36
14273;BME280;7220;49.450;11.052;2024-02-15T18:53:07;98207.06;;;12.90;83.34
14273;BME280;7220;49.450;11.052;2024-02-15T18:57:10;98212.50;;;12.88;83.04
14273;BME280;7220;49.450;11.052;2024-02-15T19:01:12;98219.09;;;12.83;83.19
14273;BME280;7220;49.450;11.052;2024-02-15T19:05:13;98231.84;;;12.77;84.01
14273;BME280;7220;49.450;11.052;2024-02-15T19:09:17;98227.88;;;12.70;84.77
14273;BME280;7220;49.450;11.052;2024-02-15T19:13:18;98237.19;;;12.63;86.76
14273;BME280;7220;49.450;11.052;2024-02-15T19:17:18;98245.75;;;12.54;87.76
14273;BME280;7220;49.450;11.052;2024-02-15T19:21:19;98225.19;;;12.41;87.59
14273;BME280;7220;49.450;11.052;2024-02-15T19:25:19;98227.09;;;12.39;87.51
14273;BME280;7220;49.450;11.052;2024-02-15T19:29:20;98226.88;;;12.28;88.40
14273;BME280;7220;49.450;11.052;2024-02-15T19:33:21;98233.22;;;12.25;88.23
14273;BME280;7220;49.450;11.052;2024-02-15T19:37:23;98234.47;;;12.20;88.89
14273;BME280;7220;49.450;11.052;2024-02-15T19:41:24;98239.22;;;12.14;89.13
14273;BME280;7220;49.450;11.052;2024-02-15T19:45:25;98223.59;;;12.08;89.51
14273;BME280;7220;49.450;11.052;2024-02-15T19:49:25;98223.09;;;12.02;90.11
14273;BME280;7220;49.450;11.052;2024-02-15T19:53:27;98220.72;;;11.97;90.51
14273;BME280;7220;49.450;11.052;2024-02-15T19:57:27;98207.06;;;11.87;90.38
14273;BME280;7220;49.450;11.052;2024-02-15T20:01:28;98199.59;;;11.78;91.97
14273;BME280;7220;49.450;11.052;2024-02-15T20:05:28;98224.50;;;11.77;92.08
14273;BME280;7220;49.450;11.052;2024-02-15T20:09:28;98213.34;;;11.70;92.42
14273;BME280;7220;49.450;11.052;2024-02-15T20:13:30;98222.38;;;11.67;93.09
14273;BME280;7220;49.450;11.052;2024-02-15T20:17:31;98230.56;;;11.64;93.64
14273;BME280;7220;49.450;11.052;2024-02-15T20:21:35;98216.63;;;11.59;94.05
14273;BME280;7220;49.450;11.052;2024-02-15T20:25:36;98217.88;;;11.54;94.52
14273;BME280;7220;49.450;11.052;2024-02-15T20:29:36;98218.97;;;11.49;93.76
14273;BME280;7220;49.450;11.052;2024-02-15T20:33:39;98194.88;;;11.36;94.98
14273;BME280;7220;49.450;11.052;2024-02-15T20:37:42;98211.69;;;11.37;94.65
14273;BME280;7220;49.450;11.052;2024-02-15T20:41:42;98206.91;;;11.28;95.40
14273;BME280;7220;49.450;11.052;2024-02-15T20:45:44;98206.38;;;11.21;95.69
14273;BME280;7220;49.450;11.052;2024-02-15T20:49:44;98220.72;;;11.18;97.26
14273;BME280;7220;49.450;11.052;2024-02-15T20:53:44;98215.91;;;11.09;97.53
14273;BME280;7220;49.450;11.052;2024-02-15T20:57:50;98220.44;;;11.07;98.27
14273;BME280;7220;49.450;11.052;2024-02-15T21:01:51;98204.97;;;10.98;98.32
14273;BME280;7220;49.450;11.052;2024-02-15T21:05:52;98210.31;;;10.98;98.65
14273;BME280;7220;49.450;11.052;2024-02-15T21:09:53;98212.38;;;10.93;99.47
14273;BME280;7220;49.450;11.052;2024-02-15T21:13:53;98208.34;;;10.85;99.83
14273;BME280;7220;49.450;11.052;2024-02-15T21:17:54;98214.78;;;10.81;100.00
14273;BME280;7220;49.450;11.052;2024-02-15T21:21:56;98212.38;;;10.77;100.00
14273;BME280;7220;49.450;11.052;2024-02-15T21:25:56;98205.31;;;10.76;100.00
14273;BME280;7220;49.450;11.052;2024-02-15T21:29:57;98209.78;;;10.75;100.00
14273;BME280;7220;49.450;11.052;2024-02-15T21:33:59;98207.34;;;10.70;100.00
14273;BME280;7220;49.450;11.052;2024-02-15T21:37:59;98191.94;;;10.61;100.00
14273;BME280;7220;49.450;11.052;2024-02-15T21:42:00;98196.97;;;10.66;100.00
14273;BME280;7220;49.450;11.052;2024-02-15T21:46:02;98183.88;;;10.63;100.00
14273;BME280;7220;49.450;11.052;2024-02-15T21:50:03;98196.28;;;10.62;100.00
14273;BME280;7220;49.450;11.052;2024-02-15T21:54:04;98180.78;;;10.54;100.00
14273;BME280;7220;49.450;11.052;2024-02-15T21:58:04;98179.19;;;10.50;100.00
14273;BME280;7220;49.450;11.052;2024-02-15T22:02:05;98170.97;;;10.39;100.00
14273;BME280;7220;49.450;11.052;2024-02-15T22:06:08;98177.81;;;10.43;100.00
14273;BME280;7220;49.450;11.052;2024-02-15T22:10:11;98177.13;;;10.39;100.00
14273;BME280;7220;49.450;11.052;2024-02-15T22:14:11;98166.78;;;10.33;100.00
14273;BME280;7220;49.450;11.052;2024-02-15T22:18:11;98170.47;;;10.31;100.00
14273;BME280;7220;49.450;11.052;2024-02-15T22:22:12;98165.31;;;10.27;100.00
14273;BME280;7220;49.450;11.052;2024-02-15T22:26:14;98159.41;;;10.22;100.00
14273;BME280;7220;49.450;11.052;2024-02-15T22:30:15;98157.84;;;10.18;100.00
14273;BME280;7220;49.450;11.052;2024-02-15T22:34:18;98155.34;;;10.15;100.00
14273;BME280;7220;49.450;11.052;2024-02-15T22:38:18;98153.78;;;10.11;100.00
14273;BME280;7220;49.450;11.052;2024-02-15T22:42:19;98139.91;;;10.06;100.00
14273;BME280;7220;49.450;11.052;2024-02-15T22:46:20;98136.66;;;10.01;100.00
14273;BME280;7220;49.450;11.052;2024-02-15T22:50:20;98132.28;;;10.00;100.00
14273;BME280;7220;49.450;11.052;2024-02-15T22:54:20;98125.25;;;9.99;100.00
14273;BME280;7220;49.450;11.052;2024-02-15T22:58:22;98129.91;;;9.93;100.00
14273;BME280;7220;49.450;11.052;2024-02-15T23:02:23;98124.78;;;9.90;100.00
14273;BME280;7220;49.450;11.052;2024-02-15T23:06:24;98125.81;;;9.88;100.00
14273;BME280;7220;49.450;11.052;2024-02-15T23:10:27;98118.00;;;9.85;100.00
14273;BME280;7220;49.450;11.052;2024-02-15T23:14:29;98114.72;;;9.79;100.00
14273;BME280;7220;49.450;11.052;2024-02-15T23:18:30;98117.44;;;9.78;100.00
14273;BME280;7220;49.450;11.052;2024-02-15T23:22:30;98115.91;;;9.74;100.00
14273;BME280;7220;49.450;11.052;2024-02-15T23:26:31;98107.31;;;9.69;100.00
14273;BME280;7220;49.450;11.052;2024-02-15T23:30:31;98118.78;;;9.69;100.00
14273;BME280;7220;49.450;11.052;2024-02-15T23:34:32;98120.84;;;9.64;100.00
14273;BME280;7220;49.450;11.052;2024-02-15T23:38:33;98109.81;;;9.54;100.00
14273;BME280;7220;49.450;11.052;2024-02-15T23:42:53;98122.09;;;9.57;100.00
14273;BME280;7220;49.450;11.052;2024-02-15T23:46:54;98129.16;;;9.56;100.00
14273;BME280;7220;49.450;11.052;2024-02-15T23:50:55;98124.03;;;9.53;100.00
14273;BME280;7220;49.450;11.052;2024-02-15T23:54:55;98124.19;;;9.50;100.00
14273;BME280;7220;49.450;11.052;2024-02-15T23:58:56;98120.59;;;9.51;100.00
